Time;durP1;ratioP1;P1;durP2;ratioP2;P2;SDS_P1;SDS_P2;PMS_P1;PMS_P2;Temp;Humidity;BMP_temperature;BMP_pressure;BME280_temperature;BME280_humidity;BME280_pressure;Samples;Min_cycle;Max_cycle;Signal;HPM_P1;HPM_P2
2023/07/17 00:01:06;;;;;;;;;;;22.60;60.00;;;;;;5001815;28;19936;-75
2023/07/17 00:03:33;;;;;;;;;;;22.60;60.20;;;;;;5005233;28;19930;-76
2023/07/17 00:05:59;;;;;;;;;;;22.60;60.30;;;;;;5004606;28;20430;-76
2023/07/17 00:08:26;;;;;;;;;;;22.50;60.30;;;;;;5003260;28;20318;-76
2023/07/17 00:10:52;;;;;;;;;;;22.50;60.50;;;;;;5004872;28;19929;-76
2023/07/17 00:13:19;;;;;;;;;;;22.50;60.70;;;;;;5001059;28;19933;-76
2023/07/17 00:15:45;;;;;;;;;;;22.50;60.70;;;;;;5001855;28;19941;-76
2023/07/17 00:18:14;;;;;;;;;;;22.40;60.80;;;;;;5002697;28;19933;-74
2023/07/17 00:20:41;;;;;;;;;;;22.40;60.70;;;;;;5005179;28;19934;-75
2023/07/17 00:23:07;;;;;;;;;;;22.40;60.80;;;;;;5004046;28;20293;-75
2023/07/17 00:25:34;;;;;;;;;;;22.40;60.80;;;;;;5002559;28;19925;-75
2023/07/17 00:28:00;;;;;;;;;;;22.40;60.70;;;;;;5001850;28;19933;-76
2023/07/17 00:30:27;;;;;;;;;;;22.30;60.70;;;;;;5013801;28;19937;-76
2023/07/17 00:32:53;;;;;;;;;;;22.30;60.70;;;;;;5013462;28;19997;-76
2023/07/17 00:35:21;;;;;;;;;;;22.30;60.80;;;;;;5014841;28;19983;-75
2023/07/17 00:37:48;;;;;;;;;;;22.30;60.80;;;;;;5016184;28;19926;-75
2023/07/17 00:40:15;;;;;;;;;;;22.30;60.90;;;;;;5013378;28;19933;-76
2023/07/17 00:42:41;;;;;;;;;;;22.20;60.90;;;;;;5003734;28;19940;-76
2023/07/17 00:45:08;;;;;;;;;;;22.20;60.90;;;;;;5003331;28;19937;-76
2023/07/17 00:47:34;;;;;;;;;;;22.20;60.90;;;;;;5003475;28;20017;-75
2023/07/17 00:50:01;;;;;;;;;;;22.20;61.00;;;;;;5006966;28;19955;-75
2023/07/17 00:52:29;;;;;;;;;;;22.20;61.10;;;;;;5000621;28;19929;-75
2023/07/17 00:54:56;;;;;;;;;;;22.10;60.90;;;;;;5003504;28;19929;-76
2023/07/17 00:57:25;;;;;;;;;;;22.10;60.90;;;;;;5001437;28;19929;-76
2023/07/17 00:59:51;;;;;;;;;;;22.10;60.90;;;;;;4997691;28;19929;-75
2023/07/17 01:02:18;;;;;;;;;;;22.10;61.00;;;;;;5002349;28;19944;-75
2023/07/17 01:04:46;;;;;;;;;;;22.10;60.90;;;;;;5005194;28;19936;-75
2023/07/17 01:07:12;;;;;;;;;;;22.10;60.90;;;;;;5001039;28;20020;-75
2023/07/17 01:09:40;;;;;;;;;;;22.10;60.90;;;;;;5004817;28;19941;-75
2023/07/17 01:12:07;;;;;;;;;;;22.00;60.80;;;;;;5003834;28;20619;-75
2023/07/17 01:14:33;;;;;;;;;;;22.00;60.80;;;;;;5001443;28;19933;-76
2023/07/17 01:17:00;;;;;;;;;;;22.00;60.80;;;;;;5001726;28;19936;-76
2023/07/17 01:19:27;;;;;;;;;;;22.00;60.80;;;;;;5000055;28;19929;-75
2023/07/17 01:21:57;;;;;;;;;;;22.00;60.80;;;;;;5001633;28;19937;-75
2023/07/17 01:24:25;;;;;;;;;;;21.90;60.80;;;;;;4999395;28;19930;-75
2023/07/17 01:26:52;;;;;;;;;;;21.90;60.90;;;;;;5004509;28;19933;-76
2023/07/17 01:29:19;;;;;;;;;;;21.90;60.90;;;;;;5003669;28;19930;-76
2023/07/17 01:31:45;;;;;;;;;;;21.90;60.90;;;;;;5003682;28;19936;-76
2023/07/17 01:34:12;;;;;;;;;;;21.90;60.90;;;;;;4996536;28;19972;-76
2023/07/17 01:36:39;;;;;;;;;;;21.90;60.90;;;;;;5002816;28;19930;-76
2023/07/17 01:39:05;;;;;;;;;;;21.90;60.90;;;;;;5002606;28;19930;-76
2023/07/17 01:41:33;;;;;;;;;;;21.90;61.00;;;;;;5003299;28;20011;-75
2023/07/17 01:44:00;;;;;;;;;;;21.80;60.90;;;;;;5003585;28;19933;-76
2023/07/17 01:46:26;;;;;;;;;;;21.80;60.90;;;;;;5003355;28;19929;-76
2023/07/17 01:48:53;;;;;;;;;;;21.80;61.00;;;;;;4999316;28;19936;-76
2023/07/17 01:51:20;;;;;;;;;;;21.80;61.80;;;;;;5000709;28;19930;-75
2023/07/17 01:53:46;;;;;;;;;;;21.80;61.10;;;;;;5002980;28;20390;-76
2023/07/17 01:56:13;;;;;;;;;;;21.80;61.00;;;;;;5002926;28;19938;-75
2023/07/17 01:58:40;;;;;;;;;;;21.70;60.90;;;;;;5002337;28;20564;-75
2023/07/17 02:01:07;;;;;;;;;;;21.70;60.90;;;;;;5001186;28;19936;-75
2023/07/17 02:03:36;;;;;;;;;;;21.70;60.80;;;;;;5002279;28;19933;-75
2023/07/17 02:06:02;;;;;;;;;;;21.70;60.70;;;;;;4998093;28;19933;-75
2023/07/17 02:08:29;;;;;;;;;;;21.70;60.80;;;;;;4998318;28;20398;-75
2023/07/17 02:10:55;;;;;;;;;;;21.70;60.80;;;;;;5003944;28;20319;-75
2023/07/17 02:13:22;;;;;;;;;;;21.60;60.70;;;;;;5001223;28;20601;-75
2023/07/17 02:15:50;;;;;;;;;;;21.70;60.80;;;;;;4999617;28;19930;-75
2023/07/17 02:18:16;;;;;;;;;;;21.60;60.70;;;;;;4999807;28;19976;-75
2023/07/17 02:20:43;;;;;;;;;;;21.60;60.70;;;;;;5001323;28;19940;-75
2023/07/17 02:23:09;;;;;;;;;;;21.60;60.70;;;;;;4999607;28;19933;-75
2023/07/17 02:25:36;;;;;;;;;;;21.60;60.80;;;;;;5001277;28;19933;-75
2023/07/17 02:28:03;;;;;;;;;;;21.60;60.80;;;;;;5003435;28;19952;-75
2023/07/17 02:30:29;;;;;;;;;;;21.60;60.90;;;;;;4999724;28;20429;-76
2023/07/17 02:32:57;;;;;;;;;;;21.60;60.90;;;;;;4982505;28;19937;-75
2023/07/17 02:35:24;;;;;;;;;;;21.60;60.90;;;;;;4982603;28;19971;-75
2023/07/17 02:37:50;;;;;;;;;;;21.60;61.00;;;;;;4982921;28;19930;-75
2023/07/17 02:40:17;;;;;;;;;;;21.50;61.00;;;;;;4981436;28;19937;-75
2023/07/17 02:42:44;;;;;;;;;;;21.50;61.10;;;;;;4979836;28;19937;-76
2023/07/17 02:45:11;;;;;;;;;;;21.50;61.10;;;;;;4984824;28;19936;-75
2023/07/17 02:47:37;;;;;;;;;;;21.50;61.10;;;;;;5010021;28;19933;-75
2023/07/17 02:50:06;;;;;;;;;;;21.50;61.20;;;;;;5006346;28;19929;-76
2023/07/17 02:52:34;;;;;;;;;;;21.50;61.20;;;;;;5004759;28;19955;-76
2023/07/17 02:55:01;;;;;;;;;;;21.50;61.30;;;;;;5007642;28;19944;-76
2023/07/17 02:57:28;;;;;;;;;;;21.50;61.30;;;;;;5000427;28;20044;-75
2023/07/17 02:59:56;;;;;;;;;;;21.50;61.40;;;;;;5005875;28;19940;-75
2023/07/17 03:02:23;;;;;;;;;;;21.50;61.50;;;;;;5004749;28;20031;-75
2023/07/17 03:04:49;;;;;;;;;;;21.40;61.40;;;;;;5004508;28;19964;-75
2023/07/17 03:07:17;;;;;;;;;;;21.50;61.50;;;;;;5000279;28;19930;-76
2023/07/17 03:09:44;;;;;;;;;;;21.40;61.50;;;;;;5005817;28;19929;-75
2023/07/17 03:12:10;;;;;;;;;;;21.40;61.60;;;;;;5005505;28;20372;-76
2023/07/17 03:14:37;;;;;;;;;;;21.40;61.70;;;;;;4998666;28;19933;-75
2023/07/17 03:17:03;;;;;;;;;;;21.40;61.90;;;;;;5003237;28;19957;-75
2023/07/17 03:19:30;;;;;;;;;;;21.40;61.90;;;;;;5006438;28;19929;-76
2023/07/17 03:21:56;;;;;;;;;;;21.40;62.00;;;;;;5004800;28;19936;-75
2023/07/17 03:24:24;;;;;;;;;;;21.30;62.10;;;;;;5004872;28;19933;-75
2023/07/17 03:26:51;;;;;;;;;;;21.40;62.30;;;;;;5008137;28;19930;-76
2023/07/17 03:29:18;;;;;;;;;;;21.30;62.30;;;;;;5007000;28;20425;-76
2023/07/17 03:31:44;;;;;;;;;;;21.30;62.40;;;;;;5004429;28;19929;-76
2023/07/17 03:34:11;;;;;;;;;;;21.30;62.40;;;;;;5000962;28;19933;-75
2023/07/17 03:36:37;;;;;;;;;;;21.30;62.60;;;;;;5004609;28;20311;-75
2023/07/17 03:39:05;;;;;;;;;;;21.30;62.60;;;;;;5003875;28;19930;-75
2023/07/17 03:41:33;;;;;;;;;;;21.30;62.80;;;;;;5005364;28;19930;-75
2023/07/17 03:44:01;;;;;;;;;;;21.30;62.80;;;;;;4999736;28;19937;-74
2023/07/17 03:46:28;;;;;;;;;;;21.30;62.90;;;;;;4991857;28;19930;-74
2023/07/17 03:48:55;;;;;;;;;;;21.20;62.90;;;;;;4985699;28;19930;-75
2023/07/17 03:51:22;;;;;;;;;;;21.20;63.10;;;;;;4988373;28;20383;-75
2023/07/17 03:53:48;;;;;;;;;;;21.20;63.10;;;;;;4984940;28;19936;-75
2023/07/17 03:56:15;;;;;;;;;;;21.20;63.10;;;;;;4980939;28;19937;-75
2023/07/17 03:58:43;;;;;;;;;;;21.20;63.20;;;;;;4985544;28;19937;-76
2023/07/17 04:01:10;;;;;;;;;;;21.10;63.30;;;;;;4989801;28;19987;-75
2023/07/17 04:03:36;;;;;;;;;;;21.10;63.30;;;;;;5003888;28;20331;-75
2023/07/17 04:06:03;;;;;;;;;;;21.10;63.40;;;;;;5003417;28;19946;-75
2023/07/17 04:08:30;;;;;;;;;;;21.10;63.50;;;;;;5004062;28;19933;-74
2023/07/17 04:10:56;;;;;;;;;;;21.10;63.50;;;;;;5007177;28;20342;-75
2023/07/17 04:13:23;;;;;;;;;;;21.10;63.60;;;;;;5002112;28;19940;-75
2023/07/17 04:15:51;;;;;;;;;;;21.10;63.70;;;;;;4994612;28;19938;-75
2023/07/17 04:18:17;;;;;;;;;;;21.10;63.70;;;;;;4973341;28;19941;-75
2023/07/17 04:20:44;;;;;;;;;;;21.00;63.60;;;;;;4984767;28;19930;-75
2023/07/17 04:23:12;;;;;;;;;;;21.00;63.70;;;;;;4985040;28;20009;-75
2023/07/17 04:25:39;;;;;;;;;;;21.00;63.80;;;;;;4982764;28;19952;-75
2023/07/17 04:28:05;;;;;;;;;;;21.00;63.80;;;;;;4981314;28;20617;-75
2023/07/17 04:30:32;;;;;;;;;;;21.00;63.80;;;;;;4982999;28;20395;-75
2023/07/17 04:33:00;;;;;;;;;;;21.00;63.90;;;;;;4980930;28;19976;-75
2023/07/17 04:35:26;;;;;;;;;;;21.00;63.90;;;;;;4985369;28;19937;-76
2023/07/17 04:37:55;;;;;;;;;;;21.00;64.00;;;;;;4983430;28;19933;-76
2023/07/17 04:40:21;;;;;;;;;;;20.90;64.10;;;;;;4982209;28;19937;-76
2023/07/17 04:42:48;;;;;;;;;;;20.90;64.10;;;;;;4981352;28;19932;-76
2023/07/17 04:45:16;;;;;;;;;;;20.90;64.10;;;;;;4982186;28;19934;-76
2023/07/17 04:47:43;;;;;;;;;;;20.90;64.30;;;;;;4982593;28;20648;-77
2023/07/17 04:50:11;;;;;;;;;;;20.90;64.40;;;;;;4979669;28;20319;-76
2023/07/17 04:52:37;;;;;;;;;;;20.90;64.50;;;;;;4982255;28;19937;-77
2023/07/17 04:55:04;;;;;;;;;;;20.90;64.50;;;;;;4982513;28;19934;-76
2023/07/17 04:57:31;;;;;;;;;;;20.90;67.00;;;;;;4981703;28;19933;-76
2023/07/17 04:59:57;;;;;;;;;;;20.80;68.80;;;;;;4981093;28;20404;-76
2023/07/17 05:02:24;;;;;;;;;;;20.70;68.60;;;;;;4978876;28;19925;-77
2023/07/17 05:04:51;;;;;;;;;;;20.70;68.40;;;;;;4979143;28;21297;-76
2023/07/17 05:07:18;;;;;;;;;;;20.70;68.30;;;;;;4979908;28;20001;-76
2023/07/17 05:09:45;;;;;;;;;;;20.70;68.00;;;;;;4981941;28;19930;-76
2023/07/17 05:12:11;;;;;;;;;;;20.70;67.70;;;;;;4983800;28;19929;-76
2023/07/17 05:14:38;;;;;;;;;;;20.70;67.40;;;;;;4982801;28;19972;-76
2023/07/17 05:17:04;;;;;;;;;;;20.70;67.20;;;;;;4982471;28;19937;-75
2023/07/17 05:19:31;;;;;;;;;;;20.70;67.00;;;;;;4983191;28;19937;-75
2023/07/17 05:21:58;;;;;;;;;;;20.70;66.70;;;;;;4976694;28;19937;-75
2023/07/17 05:24:26;;;;;;;;;;;20.70;66.50;;;;;;4980310;28;19930;-74
2023/07/17 05:26:52;;;;;;;;;;;20.70;66.30;;;;;;4982981;28;20494;-75
2023/07/17 05:29:19;;;;;;;;;;;20.80;66.20;;;;;;4982826;28;19984;-75
2023/07/17 05:31:45;;;;;;;;;;;20.70;66.00;;;;;;4978426;28;19930;-75
2023/07/17 05:34:12;;;;;;;;;;;20.80;66.00;;;;;;4983147;28;19934;-75
2023/07/17 05:36:38;;;;;;;;;;;20.70;65.80;;;;;;4979932;28;20311;-74
2023/07/17 05:39:05;;;;;;;;;;;20.70;65.50;;;;;;4982053;28;19984;-75
2023/07/17 05:41:33;;;;;;;;;;;20.70;65.50;;;;;;4983120;28;19936;-75
2023/07/17 05:43:59;;;;;;;;;;;20.80;65.40;;;;;;4982483;28;20012;-75
2023/07/17 05:46:26;;;;;;;;;;;20.80;65.40;;;;;;4982018;28;19932;-74
2023/07/17 05:48:53;;;;;;;;;;;20.80;65.30;;;;;;4984110;28;19930;-74
2023/07/17 05:51:19;;;;;;;;;;;20.80;65.20;;;;;;4976704;28;19942;-75
2023/07/17 05:53:46;;;;;;;;;;;20.80;65.20;;;;;;4976562;28;20308;-74
2023/07/17 05:56:14;;;;;;;;;;;20.80;65.10;;;;;;4982502;28;19929;-75
2023/07/17 05:58:42;;;;;;;;;;;20.80;65.00;;;;;;4974605;28;19930;-76
2023/07/17 06:01:09;;;;;;;;;;;20.80;65.00;;;;;;4978859;28;20586;-75
2023/07/17 06:03:35;;;;;;;;;;;20.80;65.00;;;;;;4981288;28;20471;-74
2023/07/17 06:06:03;;;;;;;;;;;20.80;64.90;;;;;;4978905;28;20411;-75
2023/07/17 06:08:29;;;;;;;;;;;20.80;65.60;;;;;;4974272;28;19933;-74
2023/07/17 06:10:56;;;;;;;;;;;20.80;64.80;;;;;;4983544;28;20296;-74
2023/07/17 06:13:22;;;;;;;;;;;20.80;64.80;;;;;;4985040;28;19937;-74
2023/07/17 06:15:51;;;;;;;;;;;20.90;64.80;;;;;;4972599;28;19937;-74
2023/07/17 06:18:17;;;;;;;;;;;20.80;64.70;;;;;;4979857;28;19937;-74
2023/07/17 06:20:44;;;;;;;;;;;20.90;64.70;;;;;;4983003;28;19942;-74
2023/07/17 06:23:10;;;;;;;;;;;20.90;64.80;;;;;;4985323;28;19960;-75
2023/07/17 06:25:38;;;;;;;;;;;20.90;64.80;;;;;;4985085;28;20470;-74
2023/07/17 06:28:05;;;;;;;;;;;20.90;64.70;;;;;;4983358;28;19934;-74
2023/07/17 06:30:31;;;;;;;;;;;20.90;64.70;;;;;;4983757;28;19930;-75
2023/07/17 06:32:59;;;;;;;;;;;20.90;64.70;;;;;;4984600;28;19929;-75
2023/07/17 06:35:26;;;;;;;;;;;20.90;64.70;;;;;;4982540;28;20304;-75
2023/07/17 06:37:52;;;;;;;;;;;20.90;64.70;;;;;;4986843;28;20029;-75
2023/07/17 06:40:19;;;;;;;;;;;20.90;64.70;;;;;;4985720;28;19993;-74
2023/07/17 06:42:45;;;;;;;;;;;20.90;64.70;;;;;;4980665;28;19937;-75
2023/07/17 06:45:12;;;;;;;;;;;20.90;64.60;;;;;;4984029;28;20338;-74
2023/07/17 06:47:38;;;;;;;;;;;20.90;64.60;;;;;;4983330;28;20016;-74
2023/07/17 06:50:07;;;;;;;;;;;21.00;64.70;;;;;;4986576;28;19934;-74
2023/07/17 06:52:34;;;;;;;;;;;21.00;64.80;;;;;;4980715;28;20004;-74
2023/07/17 06:55:00;;;;;;;;;;;20.90;64.60;;;;;;4978255;28;19926;-75
2023/07/17 06:57:27;;;;;;;;;;;21.00;64.70;;;;;;4987626;28;19940;-75
2023/07/17 06:59:53;;;;;;;;;;;21.00;65.40;;;;;;4985850;28;19937;-75
2023/07/17 07:02:20;;;;;;;;;;;21.00;64.60;;;;;;4978608;28;20354;-75
2023/07/17 07:04:47;;;;;;;;;;;21.00;64.50;;;;;;4984157;28;19929;-76
2023/07/17 07:07:14;;;;;;;;;;;21.00;64.40;;;;;;4984631;28;19930;-74
2023/07/17 07:09:41;;;;;;;;;;;21.00;64.40;;;;;;4987970;28;19930;-74
2023/07/17 07:12:08;;;;;;;;;;;21.10;64.50;;;;;;4987782;28;19936;-75
2023/07/17 07:14:35;;;;;;;;;;;21.10;64.50;;;;;;4987657;28;19941;-75
2023/07/17 07:17:01;;;;;;;;;;;21.10;64.50;;;;;;4982115;28;20479;-75
2023/07/17 07:19:29;;;;;;;;;;;21.10;64.50;;;;;;4984987;28;19930;-75
2023/07/17 07:21:55;;;;;;;;;;;21.10;64.50;;;;;;4987830;28;20024;-75
2023/07/17 07:24:23;;;;;;;;;;;21.10;64.60;;;;;;4985300;28;20410;-76
2023/07/17 07:26:50;;;;;;;;;;;21.10;64.50;;;;;;4984933;28;19984;-76
2023/07/17 07:29:16;;;;;;;;;;;21.20;64.60;;;;;;4987001;28;19950;-76
2023/07/17 07:31:43;;;;;;;;;;;21.20;64.60;;;;;;4986068;28;20570;-75
2023/07/17 07:34:09;;;;;;;;;;;21.20;64.60;;;;;;4982146;28;19937;-75
2023/07/17 07:36:36;;;;;;;;;;;21.20;64.50;;;;;;4986646;28;19938;-76
2023/07/17 07:39:05;;;;;;;;;;;21.20;64.50;;;;;;4983205;28;19929;-76
2023/07/17 07:41:33;;;;;;;;;;;21.20;64.30;;;;;;4985936;28;19930;-76
2023/07/17 07:43:59;;;;;;;;;;;21.30;64.30;;;;;;4986927;28;19940;-76
2023/07/17 07:46:26;;;;;;;;;;;21.30;64.30;;;;;;4986405;28;19937;-76
2023/07/17 07:48:53;;;;;;;;;;;21.30;64.20;;;;;;4982861;28;19936;-76
2023/07/17 07:51:19;;;;;;;;;;;21.30;64.10;;;;;;4983758;28;19930;-76
2023/07/17 07:53:46;;;;;;;;;;;21.30;64.00;;;;;;4976512;28;19929;-75
2023/07/17 07:56:12;;;;;;;;;;;21.30;63.90;;;;;;4982659;28;19930;-76
2023/07/17 07:58:40;;;;;;;;;;;21.40;63.90;;;;;;4979131;28;20281;-77
2023/07/17 08:01:07;;;;;;;;;;;21.30;63.80;;;;;;4972579;28;19930;-76
2023/07/17 08:03:34;;;;;;;;;;;21.40;63.60;;;;;;4983073;28;20525;-76
2023/07/17 08:06:01;;;;;;;;;;;21.40;63.30;;;;;;4979414;28;19936;-77
2023/07/17 08:08:28;;;;;;;;;;;21.40;63.20;;;;;;4975659;28;20016;-76
2023/07/17 08:10:54;;;;;;;;;;;21.50;63.20;;;;;;4980259;28;19929;-76
2023/07/17 08:13:21;;;;;;;;;;;21.50;62.90;;;;;;4982971;28;20077;-76
2023/07/17 08:15:49;;;;;;;;;;;21.50;62.70;;;;;;4978595;28;20391;-76
2023/07/17 08:18:16;;;;;;;;;;;21.50;62.40;;;;;;4982077;28;19940;-74
2023/07/17 08:20:42;;;;;;;;;;;21.60;62.30;;;;;;4979194;28;19941;-76
2023/07/17 08:23:09;;;;;;;;;;;21.60;62.00;;;;;;4983253;28;19969;-76
2023/07/17 08:25:36;;;;;;;;;;;21.60;62.00;;;;;;4979521;28;19930;-76
2023/07/17 08:28:03;;;;;;;;;;;21.60;61.80;;;;;;4981747;28;21192;-76
2023/07/17 08:30:29;;;;;;;;;;;21.70;61.80;;;;;;4981761;28;19937;-76
2023/07/17 08:32:57;;;;;;;;;;;21.70;61.70;;;;;;4980835;28;19929;-76
2023/07/17 08:35:24;;;;;;;;;;;21.70;61.60;;;;;;4983072;28;19936;-76
2023/07/17 08:37:50;;;;;;;;;;;21.80;61.40;;;;;;4983336;28;19929;-76
2023/07/17 08:40:17;;;;;;;;;;;21.80;61.20;;;;;;4982883;28;20560;-76
2023/07/17 08:42:44;;;;;;;;;;;21.80;61.10;;;;;;4982535;28;19936;-75
2023/07/17 08:45:12;;;;;;;;;;;21.90;61.00;;;;;;4977571;28;20422;-76
2023/07/17 08:47:40;;;;;;;;;;;21.90;60.90;;;;;;4979379;28;19938;-77
2023/07/17 08:50:08;;;;;;;;;;;22.00;60.70;;;;;;4981736;28;20014;-76
2023/07/17 08:52:35;;;;;;;;;;;22.00;60.60;;;;;;4982070;28;19930;-76
2023/07/17 08:55:01;;;;;;;;;;;22.00;60.50;;;;;;4981726;28;19937;-76
2023/07/17 08:57:28;;;;;;;;;;;22.10;60.50;;;;;;4983359;28;19937;-76
2023/07/17 08:59:55;;;;;;;;;;;22.10;60.30;;;;;;4979125;28;19930;-76
2023/07/17 09:02:22;;;;;;;;;;;22.10;60.20;;;;;;4981874;28;19938;-77
2023/07/17 09:04:48;;;;;;;;;;;22.20;60.20;;;;;;4978741;28;19929;-76
2023/07/17 09:07:16;;;;;;;;;;;22.20;60.00;;;;;;4980248;28;19937;-77
2023/07/17 09:09:42;;;;;;;;;;;22.20;59.80;;;;;;4986450;28;19937;-76
2023/07/17 09:12:10;;;;;;;;;;;22.30;59.70;;;;;;4977327;28;19937;-77
2023/07/17 09:14:37;;;;;;;;;;;22.30;59.60;;;;;;4978449;28;19934;-76
2023/07/17 09:17:04;;;;;;;;;;;22.30;59.30;;;;;;4981642;28;19929;-77
2023/07/17 09:19:31;;;;;;;;;;;22.40;59.30;;;;;;4982521;28;19930;-77
2023/07/17 09:22:02;;;;;;;;;;;22.40;59.20;;;;;;4981953;28;20017;-77
2023/07/17 09:24:30;;;;;;;;;;;22.40;58.50;;;;;;4978347;28;20534;-76
2023/07/17 09:26:57;;;;;;;;;;;22.50;58.60;;;;;;4976728;28;19934;-76
2023/07/17 09:29:23;;;;;;;;;;;22.50;58.20;;;;;;4978657;28;19940;-76
2023/07/17 09:31:50;;;;;;;;;;;22.50;58.20;;;;;;4978627;28;19926;-76
2023/07/17 09:34:18;;;;;;;;;;;22.60;58.20;;;;;;4980078;28;19933;-76
2023/07/17 09:36:45;;;;;;;;;;;22.60;57.70;;;;;;4981527;28;19976;-77
2023/07/17 09:39:13;;;;;;;;;;;22.70;57.40;;;;;;4980492;28;19934;-77
2023/07/17 09:41:40;;;;;;;;;;;22.70;57.30;;;;;;4982535;28;19961;-76
2023/07/17 09:44:07;;;;;;;;;;;22.70;57.20;;;;;;4976282;28;20392;-76
2023/07/17 09:46:35;;;;;;;;;;;22.80;56.90;;;;;;4981062;28;19930;-76
2023/07/17 09:49:03;;;;;;;;;;;22.90;56.50;;;;;;4981748;28;19934;-77
2023/07/17 09:51:30;;;;;;;;;;;22.90;56.30;;;;;;4981462;28;20011;-76
2023/07/17 09:53:58;;;;;;;;;;;23.00;56.30;;;;;;4979141;28;19930;-75
2023/07/17 09:56:27;;;;;;;;;;;23.00;56.20;;;;;;4982143;28;19930;-76
2023/07/17 09:58:58;;;;;;;;;;;23.10;55.50;;;;;;4980082;28;19934;-75
2023/07/17 10:01:27;;;;;;;;;;;23.20;55.40;;;;;;4911695;28;1842740;-76
2023/07/17 10:03:53;;;;;;;;;;;23.20;54.80;;;;;;4982234;28;19958;-75
2023/07/17 10:06:20;;;;;;;;;;;23.30;54.40;;;;;;4984840;28;20453;-75
2023/07/17 10:08:47;;;;;;;;;;;23.40;54.40;;;;;;4980390;28;19934;-74
2023/07/17 10:11:15;;;;;;;;;;;23.40;53.90;;;;;;4985258;28;19930;-75
2023/07/17 10:13:42;;;;;;;;;;;23.50;54.00;;;;;;4984205;28;20530;-76
2023/07/17 10:16:10;;;;;;;;;;;23.50;53.80;;;;;;4980344;28;20029;-74
2023/07/17 10:18:45;;;;;;;;;;;23.50;53.20;;;;;;4980832;28;19934;-75
2023/07/17 10:21:14;;;;;;;;;;;23.60;53.40;;;;;;4983570;28;19930;-74
2023/07/17 10:23:42;;;;;;;;;;;23.60;53.00;;;;;;4986133;28;19940;-76
2023/07/17 10:26:09;;;;;;;;;;;23.70;53.00;;;;;;4979693;28;20826;-77
2023/07/17 10:28:36;;;;;;;;;;;23.70;52.90;;;;;;4983987;28;19929;-77
2023/07/17 10:31:08;;;;;;;;;;;23.80;53.00;;;;;;4981444;28;19934;-76
2023/07/17 10:33:37;;;;;;;;;;;23.80;52.60;;;;;;4983210;28;19934;-77
2023/07/17 10:36:04;;;;;;;;;;;23.80;52.70;;;;;;4983729;28;20016;-75
2023/07/17 10:38:31;;;;;;;;;;;23.90;52.50;;;;;;4974509;28;19930;-75
2023/07/17 10:41:01;;;;;;;;;;;24.00;52.50;;;;;;4982514;28;19942;-76
2023/07/17 10:43:28;;;;;;;;;;;24.10;52.40;;;;;;4985409;28;19934;-77
2023/07/17 10:45:54;;;;;;;;;;;24.10;52.10;;;;;;4985380;28;19937;-76
2023/07/17 10:48:25;;;;;;;;;;;24.10;51.20;;;;;;4982234;28;19933;-76
2023/07/17 10:50:54;;;;;;;;;;;24.20;51.20;;;;;;4981623;28;19930;-75
2023/07/17 10:53:21;;;;;;;;;;;24.20;51.30;;;;;;4982716;28;19929;-75
2023/07/17 10:55:47;;;;;;;;;;;24.30;51.30;;;;;;4978865;28;20049;-76
2023/07/17 10:58:14;;;;;;;;;;;24.30;51.30;;;;;;4975685;28;20291;-76
2023/07/17 11:00:42;;;;;;;;;;;24.40;51.10;;;;;;4984720;28;19936;-75
2023/07/17 11:03:09;;;;;;;;;;;24.50;51.00;;;;;;4985880;28;20013;-76
2023/07/17 11:05:38;;;;;;;;;;;24.50;50.60;;;;;;4983297;28;19937;-74
2023/07/17 11:08:06;;;;;;;;;;;24.60;50.40;;;;;;4981299;28;20017;-75
2023/07/17 11:10:33;;;;;;;;;;;24.70;50.50;;;;;;4979786;28;20015;-75
2023/07/17 11:13:01;;;;;;;;;;;24.70;49.80;;;;;;4981139;28;20457;-76
2023/07/17 11:15:28;;;;;;;;;;;24.80;49.50;;;;;;4979983;28;19937;-76
2023/07/17 11:17:54;;;;;;;;;;;24.90;49.60;;;;;;4984095;28;19934;-75
2023/07/17 11:20:21;;;;;;;;;;;24.90;49.60;;;;;;4986271;28;19934;-76
2023/07/17 11:22:47;;;;;;;;;;;25.00;49.80;;;;;;4985968;28;20061;-76
2023/07/17 11:25:15;;;;;;;;;;;25.00;50.00;;;;;;4982219;28;19933;-76
2023/07/17 11:27:42;;;;;;;;;;;25.10;49.70;;;;;;4979436;28;19933;-75
2023/07/17 11:30:19;;;;;;;;;;;25.10;49.00;;;;;;4984138;28;20466;-75
2023/07/17 11:32:51;;;;;;;;;;;25.10;49.00;;;;;;4985682;28;19933;-75
2023/07/17 11:35:19;;;;;;;;;;;25.20;48.80;;;;;;4986842;28;19930;-75
2023/07/17 11:37:45;;;;;;;;;;;25.20;49.10;;;;;;4983548;28;19937;-74
2023/07/17 11:40:12;;;;;;;;;;;25.30;48.70;;;;;;4982531;28;19933;-73
2023/07/17 11:42:56;;;;;;;;;;;25.30;48.20;;;;;;4984891;28;19934;-75
2023/07/17 11:45:26;;;;;;;;;;;25.30;48.50;;;;;;4979977;28;19934;-75
2023/07/17 11:47:53;;;;;;;;;;;25.40;48.40;;;;;;4984478;28;20368;-75
2023/07/17 11:50:20;;;;;;;;;;;25.40;48.10;;;;;;4982554;28;19930;-76
2023/07/17 11:52:47;;;;;;;;;;;25.40;48.20;;;;;;4986174;28;19988;-74
2023/07/17 11:55:13;;;;;;;;;;;25.50;47.70;;;;;;4980018;28;19933;-74
2023/07/17 11:57:40;;;;;;;;;;;25.60;47.60;;;;;;4980414;28;19930;-75
2023/07/17 12:00:10;;;;;;;;;;;25.60;47.40;;;;;;4976465;28;19926;-74
2023/07/17 12:02:36;;;;;;;;;;;25.70;47.50;;;;;;4981736;28;20434;-76
2023/07/17 12:05:03;;;;;;;;;;;25.80;46.90;;;;;;4974296;28;19932;-74
2023/07/17 12:07:30;;;;;;;;;;;25.90;46.80;;;;;;4979100;28;20139;-75
2023/07/17 12:09:56;;;;;;;;;;;25.90;46.40;;;;;;4981256;28;19926;-75
2023/07/17 12:12:23;;;;;;;;;;;25.90;47.20;;;;;;4977861;28;19930;-75
2023/07/17 12:14:49;;;;;;;;;;;25.90;46.70;;;;;;4980496;28;19930;-76
2023/07/17 12:17:17;;;;;;;;;;;26.00;46.40;;;;;;4979147;28;19930;-76
2023/07/17 12:19:44;;;;;;;;;;;26.00;46.40;;;;;;4976419;28;19930;-75
2023/07/17 12:22:10;;;;;;;;;;;26.00;46.50;;;;;;4979608;28;19938;-75
2023/07/17 12:24:37;;;;;;;;;;;26.10;46.60;;;;;;4980233;28;20505;-76
2023/07/17 12:27:04;;;;;;;;;;;26.00;47.00;;;;;;4978932;28;19937;-75
2023/07/17 12:29:31;;;;;;;;;;;26.00;46.30;;;;;;4982318;28;19937;-75
2023/07/17 12:31:57;;;;;;;;;;;26.00;46.30;;;;;;4983409;28;19929;-75
2023/07/17 12:34:25;;;;;;;;;;;26.00;46.60;;;;;;4978737;28;19952;-75
2023/07/17 12:36:52;;;;;;;;;;;26.10;46.50;;;;;;4986177;28;19938;-75
2023/07/17 12:39:21;;;;;;;;;;;26.00;46.40;;;;;;4978439;28;19929;-76
2023/07/17 12:41:48;;;;;;;;;;;26.10;46.30;;;;;;4978638;28;20380;-76
2023/07/17 12:44:14;;;;;;;;;;;26.10;46.50;;;;;;4977897;28;19926;-76
2023/07/17 12:46:41;;;;;;;;;;;26.10;46.60;;;;;;4982233;28;19930;-75
2023/07/17 12:49:07;;;;;;;;;;;26.10;46.40;;;;;;4978539;28;20582;-76
2023/07/17 12:51:35;;;;;;;;;;;26.20;46.50;;;;;;4979183;28;19972;-76
2023/07/17 12:54:02;;;;;;;;;;;26.30;46.40;;;;;;4979695;28;20296;-76
2023/07/17 12:56:29;;;;;;;;;;;26.30;46.00;;;;;;4980815;28;19937;-76
2023/07/17 12:58:55;;;;;;;;;;;26.30;45.60;;;;;;4978963;28;19930;-77
2023/07/17 13:01:22;;;;;;;;;;;26.40;45.70;;;;;;4979613;28;19930;-76
2023/07/17 13:03:49;;;;;;;;;;;26.40;46.10;;;;;;4981070;28;19975;-76
2023/07/17 13:06:15;;;;;;;;;;;26.40;46.00;;;;;;4980697;28;19930;-76
2023/07/17 13:08:43;;;;;;;;;;;26.50;46.30;;;;;;4978149;28;19961;-76
2023/07/17 13:11:10;;;;;;;;;;;26.50;45.60;;;;;;4980331;28;20395;-76
2023/07/17 13:13:37;;;;;;;;;;;26.60;45.60;;;;;;4981608;28;19937;-76
2023/07/17 13:16:03;;;;;;;;;;;26.60;45.90;;;;;;4981540;28;19940;-76
2023/07/17 13:18:30;;;;;;;;;;;26.60;45.40;;;;;;4979939;28;19934;-76
2023/07/17 13:20:56;;;;;;;;;;;26.60;45.10;;;;;;4980312;28;19930;-76
2023/07/17 13:23:23;;;;;;;;;;;26.70;45.30;;;;;;4975149;28;20402;-76
2023/07/17 13:25:51;;;;;;;;;;;26.70;45.00;;;;;;4976796;28;19945;-76
2023/07/17 13:28:17;;;;;;;;;;;26.70;44.90;;;;;;4978590;28;19937;-77
2023/07/17 13:30:44;;;;;;;;;;;26.70;45.90;;;;;;4981298;28;19926;-76
2023/07/17 13:33:11;;;;;;;;;;;26.70;45.60;;;;;;4973109;28;19930;-76
2023/07/17 13:35:37;;;;;;;;;;;26.80;45.70;;;;;;4982225;28;19937;-76
2023/07/17 13:38:04;;;;;;;;;;;26.80;45.20;;;;;;4983529;28;19930;-75
2023/07/17 13:40:30;;;;;;;;;;;26.80;44.60;;;;;;4978862;28;19945;-75
2023/07/17 13:42:58;;;;;;;;;;;26.90;44.30;;;;;;4983053;28;19933;-74
2023/07/17 13:45:25;;;;;;;;;;;26.90;44.00;;;;;;4978471;28;19930;-74
2023/07/17 13:47:51;;;;;;;;;;;27.00;44.00;;;;;;4981428;28;20493;-74
2023/07/17 13:50:18;;;;;;;;;;;27.00;43.80;;;;;;4981244;28;19938;-76
2023/07/17 13:52:44;;;;;;;;;;;27.10;43.40;;;;;;4983868;28;20303;-74
2023/07/17 13:55:13;;;;;;;;;;;27.10;44.00;;;;;;4978382;28;19933;-74
2023/07/17 13:57:39;;;;;;;;;;;27.10;43.60;;;;;;4985096;28;19941;-73
2023/07/17 14:00:08;;;;;;;;;;;27.20;43.40;;;;;;4980786;28;19933;-74
2023/07/17 14:02:35;;;;;;;;;;;27.20;43.00;;;;;;4986141;28;19930;-74
2023/07/17 14:05:01;;;;;;;;;;;27.30;42.80;;;;;;4980948;28;19930;-74
2023/07/17 14:07:28;;;;;;;;;;;27.30;43.00;;;;;;4981192;28;19930;-74
2023/07/17 14:09:54;;;;;;;;;;;27.30;44.20;;;;;;4982611;28;19930;-74
2023/07/17 14:12:21;;;;;;;;;;;27.40;44.40;;;;;;4985899;28;19934;-74
2023/07/17 14:14:48;;;;;;;;;;;27.40;43.40;;;;;;4985589;28;19930;-74